Time;durP1;ratioP1;P1;durP2;ratioP2;P2;SDS_P1;SDS_P2;PMS_P1;PMS_P2;Temp;Humidity;BMP_temperature;BMP_pressure;BME280_temperature;BME280_humidity;BME280_pressure;Samples;Min_cycle;Max_cycle;Signal;HPM_P1;HPM_P2
2022/10/27 00:01:17;;;;;;;7.53;6.93;;;;;;;21.73;38.70;95953.19;6138486;28;106269;-76
2022/10/27 00:04:21;;;;;;;8.40;7.70;;;;;;;21.71;39.16;95950.00;6118145;28;104511;-75
2022/10/27 00:07:25;;;;;;;7.60;7.00;;;;;;;21.70;38.68;95951.09;6142129;28;102985;-75
2022/10/27 00:10:29;;;;;;;9.33;8.47;;;;;;;21.69;39.09;95958.28;6136733;28;104194;-76
2022/10/27 00:13:35;;;;;;;7.50;6.80;;;;;;;21.71;38.82;95955.34;6142780;28;105341;-76
2022/10/27 00:16:39;;;;;;;8.77;8.07;;;;;;;21.71;38.99;95960.66;6141919;28;103221;-76
2022/10/27 00:19:43;;;;;;;7.57;6.90;;;;;;;21.71;38.75;95966.78;6142997;28;103125;-75
2022/10/27 00:22:47;;;;;;;8.23;7.47;;;;;;;21.71;38.95;95963.34;6135455;28;103245;-74
2022/10/27 00:25:53;;;;;;;8.27;7.57;;;;;;;21.70;38.92;95956.41;6142655;28;103413;-75
2022/10/27 00:28:56;;;;;;;8.47;7.67;;;;;;;21.67;39.22;95960.41;6142164;28;103372;-75
2022/10/27 00:31:59;;;;;;;8.20;7.60;;;;;;;21.66;38.77;95958.03;6139375;28;106550;-76
2022/10/27 00:35:02;;;;;;;9.17;8.40;;;;;;;21.66;38.63;95971.34;6137125;28;103470;-75
2022/10/27 00:38:06;;;;;;;8.43;7.73;;;;;;;21.63;38.74;95962.06;6142029;28;103620;-75
2022/10/27 00:41:28;;;;;;;8.23;7.53;;;;;;;21.63;39.07;95962.06;6141594;28;103955;-75
2022/10/27 00:44:35;;;;;;;8.17;7.47;;;;;;;21.64;38.65;95970.84;6136272;28;103147;-76
2022/10/27 00:47:39;;;;;;;8.20;7.53;;;;;;;21.64;38.53;95971.63;6141929;28;102670;-76
2022/10/27 00:50:42;;;;;;;7.93;7.30;;;;;;;21.64;38.88;95970.84;6141736;28;103161;-75
2022/10/27 00:53:47;;;;;;;9.20;8.40;;;;;;;21.64;38.70;95971.63;6141372;28;103249;-75
2022/10/27 00:56:54;;;;;;;8.40;7.60;;;;;;;21.58;38.65;95959.44;6135435;28;104421;-76
2022/10/27 00:59:58;;;;;;;8.20;7.50;;;;;;;21.60;38.59;95975.94;6141533;28;103229;-75
2022/10/27 01:03:01;;;;;;;7.90;7.10;;;;;;;21.60;38.90;95975.94;6141212;28;103094;-76
2022/10/27 01:06:05;;;;;;;7.80;7.20;;;;;;;21.56;39.17;95971.44;6137720;28;103216;-75
2022/10/27 01:09:09;;;;;;;9.07;8.17;;;;;;;21.61;39.09;95987.38;6137381;28;103566;-75
2022/10/27 01:12:12;;;;;;;7.57;6.97;;;;;;;21.60;38.46;95981.25;6140783;28;103055;-75
2022/10/27 01:15:16;;;;;;;7.10;6.50;;;;;;;21.57;38.66;95979.16;6141190;28;103502;-76
2022/10/27 01:18:27;;;;;;;7.87;7.17;;;;;;;21.59;39.13;95979.69;6134848;28;103166;-75
2022/10/27 01:21:53;;;;;;;7.67;6.97;;;;;;;21.59;38.86;95981.53;6140943;28;103410;-76
2022/10/27 01:25:35;;;;;;;8.10;7.40;;;;;;;21.58;38.93;95988.75;6116731;28;103458;-75
2022/10/27 01:29:10;;;;;;;7.83;7.13;;;;;;;21.57;38.71;95986.34;6114405;28;103351;-75
2022/10/27 01:32:45;;;;;;;7.07;6.47;;;;;;;21.55;38.54;95989.31;6112763;28;103253;-76
2022/10/27 01:35:57;;;;;;;7.97;7.20;;;;;;;21.58;38.54;95990.59;6138121;28;104253;-76
2022/10/27 01:39:07;;;;;;;7.50;6.80;;;;;;;21.56;38.69;95990.88;6164295;28;103272;-75
2022/10/27 01:42:19;;;;;;;6.90;6.30;;;;;;;21.55;38.52;95997.28;6158314;28;103105;-76
2022/10/27 01:45:26;;;;;;;6.67;6.07;;;;;;;21.56;38.52;95990.09;6164766;28;103523;-75
2022/10/27 01:48:35;;;;;;;7.30;6.70;;;;;;;21.54;38.71;95998.38;6165225;28;103407;-79
2022/10/27 01:51:39;;;;;;;7.67;7.07;;;;;;;21.55;38.84;95999.94;6143073;28;103390;-81
2022/10/27 01:54:42;;;;;;;6.93;6.40;;;;;;;21.54;38.96;95997.56;6133494;28;103672;-80
2022/10/27 01:58:08;;;;;;;6.63;6.03;;;;;;;21.54;38.93;95992.25;6141144;28;103105;-76
2022/10/27 02:01:26;;;;;;;6.60;6.00;;;;;;;21.55;38.85;95988.50;6140487;28;103390;-76
2022/10/27 02:04:40;;;;;;;6.33;5.83;;;;;;;21.52;38.62;95988.00;6133995;28;103106;-76
2022/10/27 02:07:54;;;;;;;7.10;6.40;;;;;;;21.54;38.66;95986.91;6115669;28;103391;-76
2022/10/27 02:11:01;;;;;;;6.67;6.07;;;;;;;21.54;39.13;95986.91;6115283;28;103398;-76
2022/10/27 02:14:06;;;;;;;6.70;6.10;;;;;;;21.54;39.04;95985.06;6115804;28;103182;-76
2022/10/27 02:17:12;;;;;;;7.10;6.50;;;;;;;21.51;38.79;95983.75;6109378;28;104434;-76
2022/10/27 02:20:22;;;;;;;6.70;6.20;;;;;;;21.51;38.93;95981.09;6127468;28;105265;-76
2022/10/27 02:23:26;;;;;;;5.50;5.07;;;;;;;21.46;38.97;95975.78;6138490;28;102988;-76
2022/10/27 02:26:36;;;;;;;6.10;5.60;;;;;;;21.50;38.97;95982.13;6137123;28;103546;-76
2022/10/27 02:29:43;;;;;;;6.17;5.60;;;;;;;21.48;38.92;95983.47;6137339;28;105098;-76
2022/10/27 02:32:47;;;;;;;6.50;5.90;;;;;;;21.47;38.67;95988.00;6140030;28;103208;-77
2022/10/27 02:35:54;;;;;;;6.13;5.63;;;;;;;21.47;39.24;95987.22;6139816;28;103327;-76
2022/10/27 02:38:59;;;;;;;5.47;5.00;;;;;;;21.45;38.78;95979.50;6133006;28;103722;-77
2022/10/27 02:42:04;;;;;;;5.93;5.47;;;;;;;21.47;38.92;95985.34;6139873;28;103265;-76
2022/10/27 02:45:07;;;;;;;6.23;5.63;;;;;;;21.47;38.78;96001.31;6139877;28;106594;-76
2022/10/27 02:48:11;;;;;;;6.20;5.70;;;;;;;21.47;39.33;96000.53;6139284;28;103174;-75
2022/10/27 02:51:15;;;;;;;6.13;5.43;;;;;;;21.44;39.08;95999.22;6132895;28;103750;-76
2022/10/27 02:54:18;;;;;;;5.60;5.20;;;;;;;21.45;38.93;96008.81;6139055;28;103361;-76
2022/10/27 02:57:21;;;;;;;5.60;5.10;;;;;;;21.46;38.80;96017.59;6139163;28;103210;-76
2022/10/27 03:00:24;;;;;;;5.33;4.93;;;;;;;21.43;39.04;96012.81;6139008;28;105214;-77
2022/10/27 03:03:31;;;;;;;5.50;5.10;;;;;;;21.46;39.27;96020.25;6132754;28;103508;-76
2022/10/27 03:06:36;;;;;;;4.87;4.47;;;;;;;21.46;39.44;96013.06;6139297;28;103050;-76
2022/10/27 03:09:39;;;;;;;8.37;5.37;;;;;;;21.46;39.40;96022.91;6138531;28;103365;-76
2022/10/27 03:12:46;;;;;;;6.13;5.47;;;;;;;21.47;39.86;96025.28;6115624;28;104133;-76
2022/10/27 03:15:49;;;;;;;6.57;6.07;;;;;;;21.49;39.96;96023.16;6138295;28;103516;-76
2022/10/27 03:18:52;;;;;;;6.37;5.70;;;;;;;21.48;39.80;96026.88;6138511;28;103045;-77
2022/10/27 03:21:57;;;;;;;5.70;5.20;;;;;;;21.48;39.77;96018.91;6138704;28;103525;-77
2022/10/27 03:25:00;;;;;;;4.77;4.37;;;;;;;21.48;39.14;96018.91;6133999;28;106693;-76
2022/10/27 03:28:03;;;;;;;5.07;4.63;;;;;;;21.54;39.75;96034.84;6138923;28;104826;-77
2022/10/27 03:31:07;;;;;;;6.17;5.50;;;;;;;21.48;39.18;96026.88;6138691;28;103329;-77
2022/10/27 03:34:10;;;;;;;5.40;4.90;;;;;;;21.51;39.24;96042.34;6139674;28;105604;-78
2022/10/27 03:37:14;;;;;;;5.23;4.73;;;;;;;21.52;39.07;96045.78;6132481;28;105496;-78
2022/10/27 03:40:19;;;;;;;5.03;4.63;;;;;;;21.48;38.89;96047.41;6138870;28;103146;-77
2022/10/27 03:43:22;;;;;;;5.00;4.50;;;;;;;21.49;38.98;96047.13;6137702;28;103019;-79
2022/10/27 03:46:25;;;;;;;5.07;4.67;;;;;;;21.43;39.17;96037.56;6137877;28;103606;-77
2022/10/27 03:49:28;;;;;;;6.70;5.30;;;;;;;21.51;38.86;96055.66;6135288;28;104607;-78
2022/10/27 03:52:33;;;;;;;5.47;4.97;;;;;;;21.52;39.52;96054.56;6138498;28;103141;-78
2022/10/27 03:55:36;;;;;;;19.33;16.77;;;;;;;21.51;39.05;96046.88;6138088;28;104252;-79
2022/10/27 03:58:39;;;;;;;15.80;9.47;;;;;;;21.44;39.29;96047.16;6132740;28;103817;-79
2022/10/27 04:01:43;;;;;;;15.53;11.20;;;;;;;21.46;38.99;96038.88;6138207;28;102941;-78
2022/10/27 04:04:46;;;;;;;12.67;8.20;;;;;;;21.43;39.75;96034.91;6138532;28;103480;-77
2022/10/27 04:07:51;;;;;;;11.77;8.63;;;;;;;21.51;39.27;96042.34;6137609;28;104487;-77
2022/10/27 04:10:54;;;;;;;10.40;7.80;;;;;;;21.49;39.10;96036.47;6132089;28;105951;-78
2022/10/27 04:13:57;;;;;;;9.30;7.87;;;;;;;21.54;39.95;96048.16;6137222;28;103040;-77
2022/10/27 04:17:01;;;;;;;8.47;7.70;;;;;;;21.62;39.99;96052.91;6138480;28;103585;-78
2022/10/27 04:20:04;;;;;;;8.80;7.90;;;;;;;21.63;40.27;96041.16;6138904;28;103088;-80
2022/10/27 04:23:09;;;;;;;8.67;7.20;;;;;;;21.67;39.96;96045.66;6132678;28;103834;-81
2022/10/27 04:26:12;;;;;;;8.43;7.60;;;;;;;21.66;39.88;96044.06;6138747;28;104025;-79
2022/10/27 04:29:15;;;;;;;8.87;7.23;;;;;;;21.62;39.94;96043.03;6139068;28;103186;-79
2022/10/27 04:32:18;;;;;;;9.33;7.10;;;;;;;21.62;39.57;96045.69;6138250;28;103316;-79
2022/10/27 04:35:21;;;;;;;7.80;6.97;;;;;;;21.63;39.77;96054.47;6134354;28;104311;-80
2022/10/27 04:38:27;;;;;;;9.80;7.60;;;;;;;21.61;39.65;96048.66;6138668;28;103059;-81
2022/10/27 04:41:33;;;;;;;8.50;6.63;;;;;;;21.60;40.09;96047.84;6138635;28;104500;-80
2022/10/27 04:44:36;;;;;;;7.17;6.47;;;;;;;21.58;40.07;96043.88;6132304;28;103193;-79
2022/10/27 04:47:39;;;;;;;7.43;6.70;;;;;;;21.57;39.88;96047.63;6140480;28;106363;-78
2022/10/27 04:50:42;;;;;;;7.97;6.63;;;;;;;21.58;39.87;96062.53;6142963;28;104233;-79
2022/10/27 04:53:46;;;;;;;8.03;7.23;;;;;;;21.58;40.08;96060.66;6141877;28;103808;-77
2022/10/27 04:56:49;;;;;;;7.80;7.07;;;;;;;21.57;39.72;96060.94;6134919;28;103112;-79
2022/10/27 04:59:53;;;;;;;6.47;5.87;;;;;;;21.55;40.13;96052.44;6141355;28;103371;-79
2022/10/27 05:02:58;;;;;;;6.87;6.23;;;;;;;21.55;39.64;96060.41;6142075;28;103259;-78
2022/10/27 05:06:02;;;;;;;8.10;6.23;;;;;;;21.54;39.70;96064.16;6141813;28;103036;-78
2022/10/27 05:09:08;;;;;;;13.50;6.97;;;;;;;21.52;39.83;96059.09;6135364;28;103573;-78
2022/10/27 05:12:12;;;;;;;6.50;5.83;;;;;;;21.52;39.89;96073.22;6142458;28;103904;-79
2022/10/27 05:15:16;;;;;;;7.00;6.40;;;;;;;21.52;39.68;96075.88;6141326;28;102615;-78
2022/10/27 05:18:19;;;;;;;7.33;6.63;;;;;;;21.52;40.13;96091.06;6138114;28;103549;-79
2022/10/27 05:21:24;;;;;;;6.30;5.80;;;;;;;21.54;39.67;96098.78;6139451;28;103113;-78
2022/10/27 05:24:28;;;;;;;9.80;7.27;;;;;;;21.51;39.92;96102.78;6141531;28;103235;-78
2022/10/27 05:27:32;;;;;;;6.67;6.03;;;;;;;21.53;39.95;96108.63;6140980;28;104008;-77
2022/10/27 05:30:35;;;;;;;6.73;6.00;;;;;;;21.52;39.91;96113.16;6135344;28;107318;-77
2022/10/27 05:33:39;;;;;;;6.33;5.73;;;;;;;21.51;39.67;96116.91;6141621;28;104148;-78
2022/10/27 05:36:42;;;;;;;7.23;6.60;;;;;;;21.51;39.80;96110.78;6141399;28;106201;-78
2022/10/27 05:39:47;;;;;;;6.87;6.27;;;;;;;21.51;39.98;96118.78;6141112;28;103394;-78
2022/10/27 05:42:51;;;;;;;6.67;6.07;;;;;;;21.51;39.58;96129.41;6135227;28;103579;-78
2022/10/27 05:45:55;;;;;;;7.10;6.40;;;;;;;21.51;39.97;96138.22;6140567;28;103956;-78
2022/10/27 05:48:58;;;;;;;9.37;6.30;;;;;;;21.50;39.92;96131.25;6140969;28;103048;-77
2022/10/27 05:52:01;;;;;;;6.57;5.97;;;;;;;21.50;39.80;96144.56;6138644;28;103945;-78
2022/10/27 05:55:07;;;;;;;7.40;6.30;;;;;;;21.50;39.96;96147.25;6137373;28;103087;-78
2022/10/27 05:58:11;;;;;;;6.80;6.17;;;;;;;21.47;39.70;96144.34;6140863;28;104774;-78
2022/10/27 06:01:14;;;;;;;6.67;6.00;;;;;;;21.50;40.14;96152.56;6140886;28;104110;-77
2022/10/27 06:04:17;;;;;;;6.40;5.80;;;;;;;21.51;39.77;96164.84;6133971;28;103139;-79
2022/10/27 06:07:20;;;;;;;6.23;5.73;;;;;;;21.68;39.68;96163.69;6140758;28;103435;-79
2022/10/27 06:10:28;;;;;;;6.43;5.73;;;;;;;21.77;39.79;96167.34;6141095;28;104486;-77
2022/10/27 06:13:31;;;;;;;10.87;6.83;;;;;;;21.74;39.25;96157.25;6140626;28;106375;-77
2022/10/27 06:16:34;;;;;;;8.50;6.73;;;;;;;21.77;38.95;96159.34;6131990;28;103234;-77
2022/10/27 06:19:40;;;;;;;8.77;7.23;;;;;;;21.80;39.18;96162.25;6140007;28;103069;-78
2022/10/27 06:22:47;;;;;;;10.87;6.57;;;;;;;21.86;39.64;96160.41;6140667;28;103246;-77
2022/10/27 06:25:52;;;;;;;14.20;7.40;;;;;;;21.93;39.27;96160.88;6137930;28;107382;-78
2022/10/27 06:28:59;;;;;;;7.93;6.47;;;;;;;22.03;39.12;96174.16;6135648;28;103339;-78
2022/10/27 06:32:02;;;;;;;6.80;6.17;;;;;;;22.17;39.46;96170.84;6139987;28;103236;-78
2022/10/27 06:35:06;;;;;;;6.93;5.87;;;;;;;22.24;38.40;96176.66;6140096;28;102840;-78
2022/10/27 06:38:15;;;;;;;9.20;6.57;;;;;;;22.35;38.71;96180.84;6133938;28;103615;-78
2022/10/27 06:41:19;;;;;;;7.13;6.60;;;;;;;22.46;38.62;96190.34;6140035;28;103027;-76
2022/10/27 06:44:24;;;;;;;7.50;6.47;;;;;;;22.48;38.31;96188.19;6139865;28;103885;-77
2022/10/27 06:47:27;;;;;;;9.27;6.70;;;;;;;22.55;38.39;96191.34;6139087;28;103017;-76
2022/10/27 06:50:31;;;;;;;6.20;5.47;;;;;;;22.62;37.79;96193.69;6133705;28;103904;-76
2022/10/27 06:53:34;;;;;;;6.53;5.90;;;;;;;22.68;37.57;96196.06;6139919;28;105222;-77
2022/10/27 06:56:39;;;;;;;6.93;6.00;;;;;;;22.75;37.65;96198.41;6140050;28;103317;-76
2022/10/27 06:59:42;;;;;;;6.37;5.60;;;;;;;22.76;37.63;96197.31;6139196;28;103460;-77
2022/10/27 07:02:45;;;;;;;6.20;5.33;;;;;;;22.83;37.58;96200.44;6133406;28;103300;-77
2022/10/27 07:05:49;;;;;;;6.63;5.93;;;;;;;22.88;36.92;96212.97;6140071;28;105664;-77
2022/10/27 07:08:52;;;;;;;6.63;6.00;;;;;;;22.93;37.07;96207.56;6139506;28;103176;-78
2022/10/27 07:12:02;;;;;;;6.23;5.67;;;;;;;23.04;36.85;96203.72;6132515;28;104125;-76
2022/10/27 07:15:05;;;;;;;7.80;6.40;;;;;;;23.08;36.81;96206.63;6139907;28;103030;-77
2022/10/27 07:18:10;;;;;;;7.00;6.30;;;;;;;23.10;37.11;96215.94;6138383;28;103366;-77
2022/10/27 07:21:14;;;;;;;6.70;6.00;;;;;;;23.17;36.45;96210.25;6139074;28;103235;-78
2022/10/27 07:24:17;;;;;;;7.00;5.90;;;;;;;23.21;37.14;96201.41;6132740;28;107786;-78
2022/10/27 07:27:22;;;;;;;6.93;5.60;;;;;;;23.27;36.85;96213.59;6139210;28;103069;-77
2022/10/27 07:30:28;;;;;;;6.20;5.23;;;;;;;23.17;37.14;96207.56;6140209;28;105971;-78
2022/10/27 07:33:31;;;;;;;7.27;5.33;;;;;;;23.20;37.34;96212.38;6139502;28;104925;-78
2022/10/27 07:36:36;;;;;;;6.43;5.83;;;;;;;23.16;37.97;96214.00;6132227;28;103272;-78
2022/10/27 07:39:39;;;;;;;6.23;5.63;;;;;;;23.22;37.57;96223.56;6139140;28;103078;-78
2022/10/27 07:42:48;;;;;;;5.63;5.10;;;;;;;23.20;37.92;96221.16;6138919;28;104160;-78
2022/10/27 07:45:51;;;;;;;6.10;5.60;;;;;;;23.21;38.16;96228.09;6132925;28;103563;-79
2022/10/27 07:48:57;;;;;;;6.93;5.50;;;;;;;23.23;37.87;96217.94;6137099;28;103607;-78
2022/10/27 07:52:00;;;;;;;6.27;5.70;;;;;;;23.24;37.62;96226.72;6139099;28;103420;-79
2022/10/27 07:55:03;;;;;;;5.73;5.23;;;;;;;23.26;37.98;96233.38;6139195;28;105491;-79
2022/10/27 07:58:11;;;;;;;7.70;5.43;;;;;;;23.21;37.84;96224.63;6132346;28;104995;-78
2022/10/27 08:01:14;;;;;;;6.57;5.73;;;;;;;23.23;37.71;96225.94;6138633;28;104402;-79
2022/10/27 08:04:17;;;;;;;6.10;5.50;;;;;;;23.23;37.59;96215.25;6138969;28;103076;-78
2022/10/27 08:07:20;;;;;;;5.57;4.97;;;;;;;23.19;37.63;96219.59;6138432;28;103140;-78
2022/10/27 08:10:24;;;;;;;5.80;5.20;;;;;;;23.17;38.06;96224.38;6083737;28;103341;-80
2022/10/27 08:13:29;;;;;;;5.50;5.00;;;;;;;23.12;37.50;96224.44;6090445;28;102978;-79
2022/10/27 08:16:32;;;;;;;6.50;5.20;;;;;;;23.05;37.88;96207.97;6090222;28;103503;-79
2022/10/27 08:19:35;;;;;;;5.83;5.27;;;;;;;23.09;37.75;96214.34;6085863;28;102986;-80
2022/10/27 08:22:39;;;;;;;5.67;4.87;;;;;;;23.06;37.65;96214.91;6093622;28;103631;-77
2022/10/27 08:25:43;;;;;;;7.70;5.70;;;;;;;23.11;37.51;96217.50;6097542;28;103592;-78
2022/10/27 08:28:49;;;;;;;9.27;8.40;;;;;;;23.11;38.06;96206.84;6094374;28;104381;-78
2022/10/27 08:31:52;;;;;;;14.67;13.57;;;;;;;23.11;38.44;96209.50;6086285;28;103644;-79
2022/10/27 08:34:55;;;;;;;14.37;13.37;;;;;;;23.11;38.46;96206.84;6094178;28;103561;-79
2022/10/27 08:37:59;;;;;;;13.70;12.60;;;;;;;23.06;38.35;96209.56;6094322;28;103361;-79
2022/10/27 08:41:20;;;;;;;12.67;11.67;;;;;;;23.06;38.35;96214.13;6094008;28;104363;-78
2022/10/27 08:44:35;;;;;;;11.30;10.50;;;;;;;23.10;38.69;96210.59;6087453;28;103455;-78
2022/10/27 08:47:42;;;;;;;11.77;10.43;;;;;;;23.09;38.33;96206.31;6093976;28;103082;-77
2022/10/27 08:50:46;;;;;;;11.20;10.30;;;;;;;23.09;38.67;96219.69;6093555;28;103048;-77
2022/10/27 08:53:54;;;;;;;11.07;10.17;;;;;;;23.09;38.62;96213.53;6088781;28;103427;-78
2022/10/27 08:57:03;;;;;;;10.00;9.10;;;;;;;23.05;38.56;96207.97;6093172;28;103050;-79
2022/10/27 09:00:12;;;;;;;10.87;9.87;;;;;;;23.06;38.43;96203.44;6094261;28;104327;-78
2022/10/27 09:03:37;;;;;;;11.10;10.30;;;;;;;23.03;38.49;96204.81;6093316;28;103571;-78
2022/10/27 09:06:49;;;;;;;9.70;8.83;;;;;;;23.01;38.35;96209.59;6086833;28;103916;-78
2022/10/27 09:09:55;;;;;;;9.03;8.27;;;;;;;23.01;38.05;96210.41;6133782;28;103382;-78
2022/10/27 09:13:10;;;;;;;9.10;8.40;;;;;;;22.98;38.40;96208.28;6142209;28;105078;-78
2022/10/27 09:16:23;;;;;;;8.60;7.90;;;;;;;23.01;38.57;96214.94;6139418;28;106295;-78
2022/10/27 09:19:30;;;;;;;8.60;7.80;;;;;;;23.01;38.22;96212.28;6138846;28;103628;-78
2022/10/27 09:22:37;;;;;;;8.53;7.87;;;;;;;23.01;38.22;96212.28;6140887;28;103433;-78
2022/10/27 09:25:42;;;;;;;8.47;7.80;;;;;;;23.01;38.28;96209.59;6141235;28;103017;-79
2022/10/27 09:28:50;;;;;;;8.83;8.13;;;;;;;23.05;38.50;96202.63;6136019;28;103312;-79
2022/10/27 09:31:59;;;;;;;8.17;7.47;;;;;;;23.05;38.29;96205.31;6142067;28;103382;-78
2022/10/27 09:35:10;;;;;;;7.93;7.23;;;;;;;23.05;37.83;96201.84;6141052;28;103114;-79
2022/10/27 09:38:21;;;;;;;7.73;7.13;;;;;;;23.06;38.42;96192.75;6142476;28;102900;-79
2022/10/27 09:41:25;;;;;;;8.60;7.77;;;;;;;23.08;38.45;96186.03;6133832;28;103367;-78
2022/10/27 09:44:28;;;;;;;7.80;7.20;;;;;;;23.07;38.20;96184.47;6141714;28;104026;-78
2022/10/27 09:47:39;;;;;;;8.73;6.70;;;;;;;23.12;37.84;96191.59;6141569;28;104331;-77
2022/10/27 09:50:49;;;;;;;8.90;8.10;;;;;;;23.10;38.14;96186.56;6135234;28;103291;-78
2022/10/27 09:53:53;;;;;;;7.57;6.87;;;;;;;23.10;38.07;96175.88;6140173;28;103023;-78
2022/10/27 09:57:04;;;;;;;8.00;7.40;;;;;;;23.10;37.74;96181.22;6141413;28;104929;-79
2022/10/27 10:00:23;;;;;;;7.83;7.10;;;;;;;23.12;37.78;96176.38;6142250;28;104552;-77
2022/10/27 10:03:28;;;;;;;7.20;6.60;;;;;;;23.12;37.76;96179.06;6135431;28;103308;-78
2022/10/27 10:06:36;;;;;;;7.00;6.30;;;;;;;23.12;38.04;96171.03;6140985;28;103423;-77
2022/10/27 10:09:39;;;;;;;7.80;7.10;;;;;;;23.12;37.97;96171.03;6140757;28;103223;-78
2022/10/27 10:12:43;;;;;;;7.33;6.73;;;;;;;23.15;37.90;96172.34;6140448;28;103381;-79
2022/10/27 10:15:47;;;;;;;6.80;6.20;;;;;;;23.11;37.85;96169.44;6138232;28;103766;-78
2022/10/27 10:19:03;;;;;;;5.90;5.50;;;;;;;23.13;37.79;96167.28;6142150;28;104260;-78
2022/10/27 10:22:06;;;;;;;6.50;6.00;;;;;;;23.09;37.80;96166.28;6142381;28;103476;-78
2022/10/27 10:25:22;;;;;;;6.13;5.63;;;;;;;23.11;37.88;96168.66;6133882;28;104867;-78
2022/10/27 10:28:33;;;;;;;6.60;6.00;;;;;;;23.10;37.76;96162.53;6141268;28;105453;-78
2022/10/27 10:31:37;;;;;;;6.30;5.80;;;;;;;23.10;37.89;96167.06;6139998;28;103329;-78
2022/10/27 10:34:43;;;;;;;6.80;6.20;;;;;;;23.07;37.94;96157.75;6141170;28;106493;-77
2022/10/27 10:37:46;;;;;;;6.10;5.60;;;;;;;23.07;38.13;96156.97;6133643;28;103414;-79
2022/10/27 10:40:58;;;;;;;6.77;6.17;;;;;;;23.06;37.76;96155.38;6140127;28;102775;-79
2022/10/27 10:44:12;;;;;;;6.50;6.00;;;;;;;23.06;37.62;96150.84;6140662;28;105386;-79
2022/10/27 10:47:24;;;;;;;6.90;6.20;;;;;;;23.05;37.74;96154.59;6136954;28;103836;-78
2022/10/27 10:50:29;;;;;;;6.27;5.77;;;;;;;23.03;37.80;96159.41;6138455;28;103270;-76
2022/10/27 10:53:35;;;;;;;5.87;5.33;;;;;;;23.02;37.94;96144.47;6139650;28;103326;-78
2022/10/27 10:56:39;;;;;;;6.93;6.00;;;;;;;23.00;38.05;96143.94;6139156;28;103433;-78
2022/10/27 10:59:46;;;;;;;5.60;5.10;;;;;;;22.96;37.68;96142.94;6133918;28;106409;-78
2022/10/27 11:02:56;;;;;;;6.00;5.40;;;;;;;22.96;38.03;96135.72;6139747;28;106369;-76
2022/10/27 11:06:05;;;;;;;6.00;5.40;;;;;;;22.98;38.00;96132.75;6139747;28;102991;-79
2022/10/27 11:09:12;;;;;;;6.30;4.97;;;;;;;23.04;37.71;96130.84;6139492;28;103344;-78
2022/10/27 11:12:30;;;;;;;5.73;5.23;;;;;;;23.07;37.78;96125.72;6132418;28;103629;-79
2022/10/27 11:15:37;;;;;;;5.80;5.30;;;;;;;23.10;37.93;96119.81;6139291;28;103489;-78
2022/10/27 11:18:48;;;;;;;5.83;5.23;;;;;;;23.10;37.98;96117.13;6139740;28;103253;-79
2022/10/27 11:21:59;;;;;;;6.10;5.50;;;;;;;23.09;37.64;96112.09;6132913;28;103544;-79
2022/10/27 11:25:06;;;;;;;5.57;5.17;;;;;;;23.08;37.89;96116.63;6139690;28;103809;-79
2022/10/27 11:28:18;;;;;;;5.80;5.30;;;;;;;23.07;37.82;96109.69;6138679;28;103561;-79
2022/10/27 11:31:25;;;;;;;6.27;5.77;;;;;;;23.06;38.01;96110.78;6139072;28;103187;-79
2022/10/27 11:34:38;;;;;;;5.20;4.70;;;;;;;23.03;38.27;96114.03;6132726;28;104379;-78
2022/10/27 11:37:53;;;;;;;5.30;4.90;;;;;;;23.03;38.07;96106.03;6139151;28;103542;-77
2022/10/27 11:41:04;;;;;;;5.70;5.20;;;;;;;23.01;37.68;96106.28;6139621;28;103696;-78
2022/10/27 11:44:18;;;;;;;5.30;4.90;;;;;;;23.01;38.08;96100.94;6136000;28;103486;-80
2022/10/27 11:47:27;;;;;;;5.03;4.50;;;;;;;22.98;38.44;96104.19;6139021;28;103391;-78
2022/10/27 11:50:37;;;;;;;5.97;5.47;;;;;;;22.97;38.29;96099.13;6139638;28;103315;-78
2022/10/27 11:53:42;;;;;;;5.30;4.90;;;;;;;22.95;38.30;96095.97;6138758;28;103340;-78
2022/10/27 11:56:57;;;;;;;5.37;4.87;;;;;;;22.92;38.55;96101.88;6134666;28;106490;-78
2022/10/27 12:00:15;;;;;;;5.17;4.77;;;;;;;22.90;37.93;96098.69;6142409;28;103626;-78
2022/10/27 12:03:40;;;;;;;4.90;4.50;;;;;;;22.87;38.56;96084.06;6143712;28;104106;-79
2022/10/27 12:07:02;;;;;;;5.20;4.80;;;;;;;22.88;38.15;96095.53;6140605;28;103246;-80
2022/10/27 12:10:19;;;;;;;5.63;5.00;;;;;;;22.86;38.39;96093.13;6142404;28;103564;-78
2022/10/27 12:13:30;;;;;;;5.13;4.70;;;;;;;22.84;38.79;96089.13;6143441;28;103146;-80
2022/10/27 12:16:41;;;;;;;5.30;4.90;;;;;;;22.85;38.13;96086.22;6143861;28;104072;-78
2022/10/27 12:19:47;;;;;;;5.23;4.73;;;;;;;22.83;38.14;96085.69;6136783;28;106615;-78
2022/10/27 12:22:58;;;;;;;4.90;4.50;;;;;;;22.85;38.83;96080.88;6142945;28;103641;-80
2022/10/27 12:26:13;;;;;;;4.10;3.80;;;;;;;22.80;39.01;96080.91;6142726;28;103632;-80
2022/10/27 12:29:18;;;;;;;4.07;3.70;;;;;;;22.83;39.06;96079.53;6140789;28;104912;-79
2022/10/27 12:32:26;;;;;;;4.63;4.20;;;;;;;22.81;39.06;96081.69;6139056;28;103196;-79
2022/10/27 12:35:34;;;;;;;4.00;3.60;;;;;;;22.79;39.17;96081.19;6142611;28;103703;-80
2022/10/27 12:38:46;;;;;;;4.17;3.77;;;;;;;22.79;39.54;96082.00;6142858;28;103247;-80
2022/10/27 12:42:01;;;;;;;5.13;4.03;;;;;;;22.77;39.41;96073.47;6136272;28;103384;-80
2022/10/27 12:45:23;;;;;;;4.20;3.90;;;;;;;22.73;39.57;96077.81;6141970;28;103214;-79
2022/10/27 12:48:32;;;;;;;4.77;4.10;;;;;;;22.71;39.24;96079.97;6141911;28;103473;-78
2022/10/27 12:51:46;;;;;;;3.90;3.60;;;;;;;22.73;39.16;96079.69;6141906;28;103679;-80
2022/10/27 12:55:13;;;;;;;4.17;3.17;;;;;;;22.70;39.15;96079.16;6139552;28;106281;-79
2022/10/27 12:58:30;;;;;;;4.23;3.70;;;;;;;22.73;39.58;96077.81;6143274;28;104479;-78
2022/10/27 13:01:43;;;;;;;3.50;3.23;;;;;;;22.72;39.11;96081.56;6142174;28;103039;-79
2022/10/27 13:05:20;;;;;;;4.10;3.80;;;;;;;22.74;39.28;96074.06;6135638;28;103539;-79
2022/10/27 13:09:16;;;;;;;4.30;4.00;;;;;;;22.72;39.24;96075.41;6141076;28;103622;-79
2022/10/27 13:12:33;;;;;;;3.57;3.27;;;;;;;22.70;39.06;96071.16;6142898;28;103662;-79
2022/10/27 13:15:54;;;;;;;3.73;3.40;;;;;;;22.69;38.99;96071.44;6135138;28;103677;-79
2022/10/27 13:19:11;;;;;;;3.60;3.30;;;;;;;22.68;39.54;96076.00;6142623;28;103409;-78
2022/10/27 13:22:20;;;;;;;3.77;3.47;;;;;;;22.68;39.09;96069.84;6141714;28;103341;-79
2022/10/27 13:25:27;;;;;;;3.60;3.40;;;;;;;22.67;38.97;96063.69;6142937;28;104607;-78
2022/10/27 13:28:36;;;;;;;4.00;3.60;;;;;;;22.65;39.41;96071.19;6137211;28;105158;-78
2022/10/27 13:32:26;;;;;;;3.33;3.07;;;;;;;22.65;39.60;96065.88;6141911;28;103524;-77
2022/10/27 13:35:33;;;;;;;3.57;3.27;;;;;;;22.63;39.41;96061.91;6141709;28;103328;-79
2022/10/27 13:38:36;;;;;;;3.83;3.53;;;;;;;22.63;39.54;96062.69;6134616;28;103938;-79
2022/10/27 13:41:50;;;;;;;3.83;3.53;;;;;;;22.57;39.63;96068.38;6141336;28;103168;-80
2022/10/27 13:44:53;;;;;;;3.67;3.37;;;;;;;22.54;39.12;96064.38;6140000;28;102974;-80
2022/10/27 13:48:42;;;;;;;3.17;2.97;;;;;;;22.53;38.88;96062.00;6141883;28;106407;-82
2022/10/27 13:51:51;;;;;;;4.00;3.20;;;;;;;22.50;39.16;96058.00;6138650;28;103701;-81
2022/10/27 13:55:33;;;;;;;3.00;2.80;;;;;;;22.49;38.64;96067.06;6141866;28;102854;-81
2022/10/27 13:58:54;;;;;;;4.40;3.20;;;;;;;22.47;38.51;96063.91;6140920;28;103729;-81
2022/10/27 14:02:11;;;;;;;3.65;3.25;;;;;;;22.48;38.33;96057.47;6111520;28;104414;-81
2022/10/27 14:05:25;;;;;;;3.60;3.30;;;;;;;22.44;38.61;96048.47;6117339;28;104938;-82
2022/10/27 14:08:33;;;;;;;3.43;3.13;;;;;;;22.44;38.37;96053.81;6131758;28;105478;-83
2022/10/27 14:11:36;;;;;;;4.03;3.20;;;;;;;22.45;38.47;96054.59;6137160;28;104193;-83
2022/10/27 14:14:41;;;;;;;3.43;3.00;;;;;;;22.42;38.08;96056.75;6139645;28;103057;-81
2022/10/27 14:17:47;;;;;;;3.03;2.73;;;;;;;22.42;38.63;96048.75;6147724;28;107517;-81
2022/10/27 14:20:53;;;;;;;3.10;2.90;;;;;;;22.38;38.44;96049.59;6165526;28;103415;-82
2022/10/27 14:24:04;;;;;;;3.20;2.90;;;;;;;22.38;38.20;96041.59;6158423;28;103102;-81
2022/10/27 14:27:16;;;;;;;3.20;2.70;;;;;;;22.38;38.66;96045.06;6160864;28;106275;-82
2022/10/27 14:30:22;;;;;;;4.27;2.83;;;;;;;22.38;38.21;96053.06;6141835;28;104140;-82
2022/10/27 14:33:26;;;;;;;3.47;3.17;;;;;;;22.37;38.66;96048.81;6141065;28;103570;-81